Tiempo atmosférico en la estación meteorológica de Motilla Del Palancar, Cuenca (830 m.)



Fecha
DESCASC
Temp. máxima en grados centígrados (hora)
DESCASC
Temp. mínima en grados centígrados (hora)
DESCASC
Temp. media en grados centígrados
DESCASC
Racha de viento máxima en m/sg (hora)
DESCASC
Velocidad máxima media en intervalos de 10 minutos(hora)
DESCASC
Precipitaciones diarias en mm
DESCASC
Precipitaciones de 00:00 a 06:00 en mm
DESCASC
Precipitaciones de 06:00 a 12:00 en mm
DESCASC
Precipitaciones de 12:00 a 18:00 en mm
DESCASC
Precipitaciones de 18:00 a 24:00 en mm
DESCASC
30-12-2019 -- (--) -- (--) -- -- (--) -- (--) -- 0 0 -- 0
03-01-2020 12.6 (15:20) -3.1 (-00:0) 4.8 7.78 (13:30) 4.44 (13:30) 0 0 0 0 0
17-01-2020 11.4 (16:20) -1.1 (-00:0) 5.1 10 (15:00) 5.28 (15:30) 0 0 0 0 0
16-01-2020 14.8 (15:00) -0.2 (00:00) 7.3 5.83 (14:50) 3.61 (16:30) 0 0 0 0 0
15-01-2020 11.4 (15:20) -3.6 (-00:0) 3.9 8.89 (14:20) 5.28 (14:20) 0 0 0 0 0
14-01-2020 10.2 (16:00) -6.5 (-00:0) 1.8 6.94 (12:30) 4.17 (14:30) 0 0 0 0 0
13-01-2020 9.8 (15:40) -5 (-00:0) 2.4 7.5 (15:40) 4.44 (15:40) 0 0 0 0 0
12-01-2020 11.9 (15:30) -5.2 (-00:0) 3.3 6.39 (14:10) 3.89 (13:40) 0 0 0 0 0
11-01-2020 12 (15:40) -2.7 (-00:0) 4.6 4.72 (13:10) 2.78 (13:10) 0 0 0 0 0
10-01-2020 10.4 (14:30) -1.3 (-00:0) 4.5 11.11 (15:00) 6.11 (17:20) 0 0 0 0 0
09-01-2020 12.2 (15:20) 0.2 (00:00) 6.2 4.17 (15:20) 2.5 (15:20) 0 0 0 0 0
08-01-2020 14.7 (12:20) -2.4 (-00:0) 6.1 8.89 (13:40) 5 (14:30) 0 0 0 0 0
07-01-2020 16.5 (16:10) -1.7 (-00:0) 7.4 5 (15:50) 3.06 (15:50) 0 0 0 0 0
06-01-2020 16.5 (16:00) -1.9 (-00:0) 7.3 3.33 (17:10) 2.22 (16:50) 0 0 0 0 0
05-01-2020 14.9 (16:10) -3 (-00:0) 5.9 3.33 (00:20) 1.39 (14:10) 0 0 0 0 0
04-01-2020 12.3 (13:50) -4.2 (-00:0) 4.1 6.11 (11:10) 3.61 (11:10) 0 0 0 0 0
02-01-2020 15 (15:10) -2.8 (-00:0) 6.1 4.44 (15:20) 2.78 (14:50) 0 0 0 0 0
01-01-2020 14.7 (16:40) -3 (-00:0) 5.8 3.06 (14:50) 1.67 (13:40) 0 0 0 0 0
31-12-2019 11.2 (16:00) -2 (-00:0) 4.6 4.72 (11:50) 2.78 (11:40) 0 0 0 0 0
29-12-2019 10.8 (16:00) -1.8 (-00:0) 4.5 4.44 (14:30) 2.78 (11:30) 0 0 0 0 0
28-12-2019 16.2 (14:00) -1.6 (-00:0) 7.3 3.61 (15:50) 2.22 (15:00) 0 0 0 0 0
27-12-2019 16.6 (16:40) 1.7 (00:00) 9.2 4.72 (01:20) 2.5 (00:40) 0 0 0 0 0
26-12-2019 16.5 (16:50) 3.4 (00:00) 10 4.17 (14:50) 3.06 (14:40) 0 0 0 0 0
25-12-2019 18.6 (15:10) 2.2 (00:00) 10.4 4.17 (16:10) 2.78 (16:00) 0 0 0 0 0
24-12-2019 16.7 (16:40) 1.7 (00:00) 9.2 5 (14:30) 3.33 (14:20) 0 0 0 0 0
23-12-2019 12.6 (16:20) 4.5 (00:00) 8.6 12.22 (02:10) 6.39 (02:10) 0 0 0 0 0
22-12-2019 12.3 (14:10) 7.4 (00:00) 9.9 17.22 (15:00) 10.56 (15:00) 0 0 0 0 0
19-12-2019 11.9 (23:59) 0.8 (01:00) 6.3 12.78 (23:59) 9.17 (23:59) 1.4 0 0 1 0.4
20-12-2019 13.3 (23:30) 11.3 (00:00) 12.3 19.17 (22:50) 12.5 (19:50) 10.6 0.2 2 4 4.4
21-12-2019 14.1 (13:50) 9.6 (00:00) 11.9 21.11 (20:40) 12.78 (20:30) 18.8 9.4 5.4 4 0

Gráficas

Temp. máximas Temp. mínimas Temp. medias Precipitaciones Rachas de viento máximas Velocidades máximas media en intervalos de 10 minutos

Datos horarios

Fecha y hora oficial Temperatura (ºC) Velocidad del viento (km/h) Dirección del viento Racha (km/h) Dirección de racha Precipitación (mm) Presión (hPa) Tendencia (hPa) Humedad (%)
2020-01-17 23:00:00 3.3 3 Nordeste 9 Nordeste 0 -- -- 89
2020-01-17 22:00:00 2.2 3 Nordeste 5 Nordeste 0 -- -- 88
2020-01-17 21:00:00 2.9 2 Oeste 6 Noroeste 0 -- -- 86
2020-01-17 20:00:00 4.9 0 Calma 8 Noroeste 0 -- -- 77
2020-01-17 19:00:00 7.5 5 Noroeste 18 Oeste 0 -- -- 72
2020-01-17 18:00:00 9.5 9 Noroeste 31 Noroeste 0 -- -- 65
2020-01-17 17:00:00 11.3 14 Noroeste 34 Oeste 0 -- -- 60
2020-01-17 16:00:00 10.9 16 Oeste 35 Oeste 0 -- -- 62
2020-01-17 15:00:00 10.6 17 Oeste 36 Oeste 0 -- -- 64
2020-01-17 14:00:00 10.6 15 Oeste 32 Oeste 0 -- -- 62
2020-01-17 13:00:00 9.1 12 Oeste 33 Oeste 0 -- -- 76
2020-01-17 12:00:00 8.3 13 Oeste 24 Sudoeste 0 -- -- 77
2020-01-17 11:00:00 7.2 8 Oeste 15 Oeste 0 -- -- 76
2020-01-17 10:00:00 5.7 7 Oeste 19 Oeste 0 -- -- 76
2020-01-17 09:00:00 4.5 9 Noroeste 17 Noroeste 0 -- -- 78
2020-01-17 08:00:00 4 5 Oeste 12 Oeste 0 -- -- 74
2020-01-17 07:00:00 5.2 6 Oeste 16 Oeste 0 -- -- 68
2020-01-17 06:00:00 4.4 3 Oeste 12 Oeste 0 -- -- 70
2020-01-17 05:00:00 3.1 3 Oeste 7 Sudoeste 0 -- -- 76
2020-01-17 04:00:00 2.3 3 Noroeste 6 Noroeste 0 -- -- 82
2020-01-17 03:00:00 0.1 2 Este 8 Noroeste 0 -- -- 90
2020-01-17 02:00:00 -0.9 2 Noroeste 6 Noroeste 0 -- -- 87
2020-01-17 01:00:00 0.2 0 Calma 4 Nordeste 0 -- -- 84
2020-01-17 00:00:00 1.4 0 Calma 6 Nordeste 0 -- -- 81
2020-01-16 23:00:00 1.7 0 Calma 6 Nordeste 0 -- -- 82
2020-01-16 22:00:00 2.2 2 Nordeste 7 Norte 0 -- -- 81
2020-01-16 21:00:00 3.1 0 Calma 7 Este 0 -- -- 78
2020-01-16 20:00:00 5.2 3 Nordeste 5 Nordeste 0 -- -- 76
2020-01-16 19:00:00 7.7 0 Calma 6 Oeste 0 -- -- 64
2020-01-16 18:00:00 12.1 4 Oeste 13 Sudoeste 0 -- -- 55
2020-01-16 17:00:00 13.7 9 Oeste 21 Oeste 0 -- -- 53
2020-01-16 16:00:00 13.3 10 Sudoeste 20 Oeste 0 -- -- 56
2020-01-16 15:00:00 14.8 12 Sudoeste 21 Oeste 0 -- -- 54
2020-01-16 14:00:00 13.7 9 Sudoeste 17 Sudoeste 0 -- -- 58
2020-01-16 13:00:00 12.5 6 Sudoeste 13 Sudoeste 0 -- -- 65
2020-01-16 12:00:00 11.4 5 Sudoeste 9 Sur 0 -- -- 74
2020-01-16 11:00:00 7.3 2 Este 6 Este 0 -- -- 89
2020-01-16 10:00:00 2.6 2 Nordeste 4 Nordeste 0 -- -- 97
2020-01-16 09:00:00 0.7 0 Calma 5 Norte 0 -- -- 96
2020-01-16 08:00:00 0.8 2 Nordeste 5 Norte 0 -- -- 95
2020-01-16 07:00:00 0.8 0 Calma 6 Nordeste 0 -- -- 93
2020-01-16 06:00:00 1.9 2 Nordeste 8 Nordeste 0 -- -- 94
2020-01-16 05:00:00 1.5 5 Nordeste 9 Nordeste 0 -- -- 95
2020-01-16 04:00:00 -0.1 2 Noroeste 4 Norte 0 -- -- 90
2020-01-16 03:00:00 0.4 0 Calma 5 Nordeste 0 -- -- 87
2020-01-16 02:00:00 2.5 0 Calma 2 Noroeste 0 -- -- 87
2020-01-16 01:00:00 4.5 0 Calma 6 Oeste 0 -- -- 84
2020-01-16 00:00:00 5.5 0 Calma 4 Este 0 -- -- 81
2020-01-15 23:00:00 6.2 3 Norte 5 Nordeste 0 -- -- 81
2020-01-15 22:00:00 5.7 3 Nordeste 8 Nordeste 0 -- -- 81
2020-01-15 21:00:00 5.3 4 Nordeste 6 Nordeste 0 -- -- 81
2020-01-15 20:00:00 5.7 4 Nordeste 8 Nordeste 0 -- -- 79
2020-01-15 19:00:00 5.9 2 Oeste 5 Noroeste 0 -- -- 75
2020-01-15 18:00:00 9.3 4 Noroeste 12 Noroeste 0 -- -- 66
2020-01-15 17:00:00 11 10 Noroeste 23 Noroeste 0 -- -- 60
2020-01-15 16:00:00 11 13 Oeste 29 Noroeste 0 -- -- 59
2020-01-15 15:00:00 11 12 Oeste 32 Oeste 0 -- -- 59
2020-01-15 14:00:00 10.8 13 Oeste 22 Oeste 0 -- -- 59
2020-01-15 13:00:00 9.5 12 Oeste 24 Oeste 0 -- -- 67
2020-01-15 12:00:00 7.5 10 Oeste 19 Noroeste 0 -- -- 77
2020-01-15 11:00:00 3.9 5 Noroeste 9 Noroeste 0 -- -- 94
2020-01-15 10:00:00 0.3 0 Calma 2 Sur 0 -- -- 97
2020-01-15 09:00:00 -2.9 0 Calma 4 Nordeste 0 -- -- 95
2020-01-15 08:00:00 -2.3 2 Nordeste 5 Norte 0 -- -- 95
2020-01-15 07:00:00 -2.3 0 Calma 2 Nordeste 0 -- -- 93
2020-01-15 06:00:00 -1.6 0 Calma 2 Nordeste 0 -- -- 94
2020-01-15 05:00:00 -1.9 0 Calma 2 Nordeste 0 -- -- 94
2020-01-15 04:00:00 -3.1 0 Calma 5 Norte 0 -- -- 94
2020-01-15 03:00:00 -3.3 2 Nordeste 4 Norte 0 -- -- 93
2020-01-15 02:00:00 -3.3 0 Calma 2 Este 0 -- -- 91
2020-01-15 01:00:00 -3.1 0 Calma 2 Nordeste 0 -- -- 90
2020-01-15 00:00:00 -2.6 0 Calma 5 Este 0 -- -- 87
2020-01-14 23:00:00 -1.8 3 Nordeste 4 Nordeste 0 -- -- 87
2020-01-14 22:00:00 -1.1 0 Calma 3 Este 0 -- -- 83
2020-01-14 21:00:00 0.6 0 Calma 8 Noroeste 0 -- -- 78
2020-01-14 20:00:00 2.8 6 Noroeste 9 Noroeste 0 -- -- 78
2020-01-14 19:00:00 4.4 0 Calma 12 Oeste 0 -- -- 70
2020-01-14 18:00:00 7.2 7 Oeste 19 Oeste 0 -- -- 60
2020-01-14 17:00:00 9.9 11 Oeste 22 Oeste 0 -- -- 51
2020-01-14 16:00:00 10.2 11 Oeste 23 Oeste 0 -- -- 50
2020-01-14 15:00:00 9.7 13 Noroeste 24 Oeste 0 -- -- 54
2020-01-14 14:00:00 9.1 13 Oeste 24 Noroeste 0 -- -- 58
2020-01-14 13:00:00 8.1 13 Oeste 25 Oeste 0 -- -- 61
2020-01-14 12:00:00 6.6 14 Oeste 23 Oeste 0 -- -- 67
2020-01-14 11:00:00 3.7 5 Oeste 9 Noroeste 0 -- -- 79
2020-01-14 10:00:00 -2.9 0 Calma 2 Sur 0 -- -- 95
2020-01-14 09:00:00 -6.2 0 Calma 0 Calma 0 -- -- 94
2020-01-14 08:00:00 -6.4 0 Calma 0 Calma 0 -- -- 93
2020-01-14 07:00:00 -5.9 0 Calma 2 Nordeste 0 -- -- 92
2020-01-14 06:00:00 -5.5 0 Calma 3 Este 0 -- -- 92
2020-01-14 05:00:00 -5 0 Calma 2 Nordeste 0 -- -- 91
2020-01-14 04:00:00 -4.6 0 Calma 2 Noroeste 0 -- -- 90
2020-01-14 03:00:00 -4.3 0 Calma 6 Noroeste 0 -- -- 85
2020-01-14 02:00:00 -1.9 3 Norte 6 Norte 0 -- -- 87
2020-01-14 01:00:00 -2.1 0 Calma 4 Norte 0 -- -- 83
2020-01-14 00:00:00 0.7 4 Norte 9 Norte 0 -- -- 79
2020-01-13 23:00:00 0.5 3 Nordeste 8 Norte 0 -- -- 78
2020-01-13 22:00:00 2.2 4 Norte 10 Norte 0 -- -- 73
2020-01-13 21:00:00 3.7 5 Norte 11 Noroeste 0 -- -- 68
2020-01-13 20:00:00 3.1 3 Noroeste 7 Noroeste 0 -- -- 73
2020-01-13 19:00:00 4 0 Calma 7 Noroeste 0 -- -- 63
2020-01-13 18:00:00 7.1 5 Noroeste 19 Noroeste 0 -- -- 56
2020-01-13 17:00:00 8.6 8 Oeste 22 Noroeste 0 -- -- 49
2020-01-13 16:00:00 9.6 15 Noroeste 27 Noroeste 0 -- -- 44
2020-01-13 15:00:00 9 13 Oeste 26 Oeste 0 -- -- 48
2020-01-13 14:00:00 8.6 13 Oeste 24 Oeste 0 -- -- 48
2020-01-13 13:00:00 8.3 13 Oeste 22 Oeste 0 -- -- 47
2020-01-13 12:00:00 7.4 9 Oeste 16 Oeste 0 -- -- 56
2020-01-13 11:00:00 4 0 Calma 3 Norte 0 -- -- 69
2020-01-13 10:00:00 -1.8 0 Calma 4 Este 0 -- -- 80
2020-01-13 09:00:00 -4.6 0 Calma 3 Nordeste 0 -- -- 84
2020-01-13 08:00:00 -4.5 2 Nordeste 5 Nordeste 0 -- -- 82
2020-01-13 07:00:00 -3.9 3 Nordeste 5 Nordeste 0 -- -- 82
2020-01-13 06:00:00 -4 0 Calma 5 Norte 0 -- -- 82
2020-01-13 05:00:00 -3.6 3 Nordeste 4 Nordeste 0 -- -- 82
2020-01-13 04:00:00 -3.4 0 Calma 5 Nordeste 0 -- -- 83
2020-01-13 03:00:00 -3 2 Nordeste 4 Norte 0 -- -- 83
2020-01-13 02:00:00 -2.9 2 Nordeste 4 Nordeste 0 -- -- 84
2020-01-13 01:00:00 -3.1 0 Calma 6 Nordeste 0 -- -- 79
2020-01-13 00:00:00 -2.1 3 Nordeste 5 Nordeste 0 -- -- 78
2020-01-12 23:00:00 -1.6 2 Norte 6 Nordeste 0 -- -- 76
2020-01-12 22:00:00 -1.1 0 Calma 6 Nordeste 0 -- -- 71
2020-01-12 21:00:00 0.9 3 Norte 8 Nordeste 0 -- -- 69
2020-01-12 20:00:00 2.2 4 Nordeste 11 Este 0 -- -- 65
2020-01-12 19:00:00 4.4 0 Calma 5 Oeste 0 -- -- 53
2020-01-12 18:00:00 9.8 0 Calma 12 Oeste 0 -- -- 42
2020-01-12 17:00:00 11.5 9 Oeste 22 Oeste 0 -- -- 37
2020-01-12 16:00:00 11.6 13 Oeste 21 Oeste 0 -- -- 39
2020-01-12 15:00:00 11.7 12 Oeste 23 Oeste 0 -- -- 40
2020-01-12 14:00:00 10.8 13 Oeste 22 Oeste 0 -- -- 42
2020-01-12 13:00:00 10 11 Oeste 19 Oeste 0 -- -- 45
2020-01-12 12:00:00 7.6 10 Oeste 15 Oeste 0 -- -- 57
2020-01-12 11:00:00 3.7 5 Oeste 9 Oeste 0 -- -- 70
2020-01-12 10:00:00 -1.2 4 Sur 6 Sur 0 -- -- 88
2020-01-12 09:00:00 -4.1 0 Calma 6 Noroeste 0 -- -- 88
2020-01-12 08:00:00 -4.2 4 Noroeste 7 Noroeste 0 -- -- 92
2020-01-12 07:00:00 -4.6 0 Calma 2 Nordeste 0 -- -- 90
2020-01-12 06:00:00 -4.8 0 Calma 4 Nordeste 0 -- -- 87
2020-01-12 05:00:00 -4.6 0 Calma 3 Noroeste 0 -- -- 84
2020-01-12 04:00:00 -2.8 3 Nordeste 6 Nordeste 0 -- -- 83
2020-01-12 03:00:00 -2.6 0 Calma 5 Nordeste 0 -- -- 81
2020-01-12 02:00:00 -1.8 4 Nordeste 9 Norte 0 -- -- 80
2020-01-12 01:00:00 -2.9 0 Calma 4 Oeste 0 -- -- 81
2020-01-12 00:00:00 -2.6 0 Calma 4 Nordeste 0 -- -- 82
2020-01-11 23:00:00 -2 0 Calma 4 Nordeste 0 -- -- 79
2020-01-11 22:00:00 -1 0 Calma 4 Norte 0 -- -- 72
2020-01-11 21:00:00 0.5 0 Calma 3 Sudoeste 0 -- -- 73
2020-01-11 20:00:00 2.6 0 Calma 5 Nordeste 0 -- -- 64
2020-01-11 19:00:00 6.2 3 Noroeste 8 Oeste 0 -- -- 54
2020-01-11 18:00:00 9.8 2 Sudoeste 14 Sudoeste 0 -- -- 43
2020-01-11 17:00:00 11.8 9 Oeste 15 Sudoeste 0 -- -- 40
2020-01-11 16:00:00 11.9 10 Sudoeste 15 Sudoeste 0 -- -- 42
2020-01-11 15:00:00 11.8 8 Oeste 15 Oeste 0 -- -- 45
2020-01-11 14:00:00 11.7 6 Sur 17 Sudoeste 0 -- -- 47
2020-01-11 13:00:00 10.7 6 Oeste 13 Norte 0 -- -- 50
2020-01-11 12:00:00 9.1 5 Norte 11 Norte 0 -- -- 50
2020-01-11 11:00:00 6.2 5 Norte 13 Norte 0 -- -- 62
2020-01-11 10:00:00 1.9 5 Norte 14 Nordeste 0 -- -- 79
2020-01-11 09:00:00 0.5 7 Norte 13 Norte 0 -- -- 82
2020-01-11 08:00:00 0.5 5 Nordeste 13 Nordeste 0 -- -- 82
2020-01-11 07:00:00 0.9 8 Nordeste 17 Norte 0 -- -- 82
2020-01-11 06:00:00 0.5 8 Nordeste 14 Nordeste 0 -- -- 84
2020-01-11 05:00:00 0.6 7 Nordeste 14 Nordeste 0 -- -- 81
2020-01-11 04:00:00 1.2 6 Norte 12 Norte 0 -- -- 80
2020-01-11 03:00:00 1 4 Nordeste 10 Nordeste 0 -- -- 83
2020-01-11 02:00:00 1.3 2 Este 13 Oeste 0 -- -- 76
2020-01-11 01:00:00 2.5 7 Noroeste 12 Norte 0 -- -- 75
2020-01-11 00:00:00 3.1 6 Norte 17 Nordeste 0 -- -- 72
2020-01-10 23:00:00 3.7 4 Norte 17 Nordeste 0 -- -- 69
2020-01-10 22:00:00 3.8 5 Nordeste 11 Norte 0 -- -- 68
2020-01-10 21:00:00 4.2 3 Nordeste 19 Nordeste 0 -- -- 65
2020-01-10 20:00:00 5.7 10 Nordeste 20 Nordeste 0 -- -- 60
2020-01-10 19:00:00 6.4 9 Nordeste 31 Nordeste 0 -- -- 58
2020-01-10 18:00:00 7.8 12 Nordeste 38 Nordeste 0 -- -- 53
2020-01-10 17:00:00 9.5 17 Nordeste 37 Nordeste 0 -- -- 48
2020-01-10 16:00:00 9.9 18 Nordeste 37 Nordeste 0 -- -- 45
2020-01-10 15:00:00 10.2 21 Nordeste 40 Nordeste 0 -- -- 41
2020-01-10 14:00:00 10.1 17 Norte 35 Norte 0 -- -- 41
2020-01-10 13:00:00 9.9 14 Norte 31 Nordeste 0 -- -- 46
2020-01-10 12:00:00 8.9 13 Nordeste 24 Nordeste 0 -- -- 51
2020-01-10 11:00:00 6.8 7 Nordeste 18 Nordeste 0 -- -- 69
2020-01-10 10:00:00 1.7 2 Noroeste 6 Norte 0 -- -- 99
2020-01-10 09:00:00 0.8 0 Calma 2 Sudoeste 0 -- -- 98
2020-01-10 08:00:00 1.4 0 Calma 10 Noroeste 0 -- -- 98
2020-01-10 07:00:00 0.4 3 Noroeste 5 Noroeste 0 -- -- 98
2020-01-10 06:00:00 -1.2 0 Calma 2 Sudoeste 0 -- -- 97
2020-01-10 05:00:00 -0.3 0 Calma 8 Norte 0 -- -- 96
2020-01-10 04:00:00 0.2 0 Calma 6 Noroeste 0 -- -- 99
2020-01-10 03:00:00 -0.7 0 Calma 6 Noroeste 0 -- -- 96
2020-01-10 02:00:00 -0.9 0 Calma 3 Noroeste 0 -- -- 93
2020-01-10 01:00:00 0.1 0 Calma 5 Oeste 0 -- -- 93
2020-01-10 00:00:00 1.4 0 Calma 8 Sudoeste 0 -- -- 91
2020-01-09 23:00:00 2.4 2 Norte 6 Nordeste 0 -- -- 91
2020-01-09 22:00:00 2.4 0 Calma 7 Noroeste 0 -- -- 89
2020-01-09 21:00:00 2.7 2 Noroeste 4 Noroeste 0 -- -- 82
2020-01-09 20:00:00 4.2 0 Calma 4 Sudoeste 0 -- -- 79
2020-01-09 19:00:00 6.9 0 Calma 9 Oeste 0 -- -- 72
2020-01-09 18:00:00 9.6 4 Oeste 12 Sudoeste 0 -- -- 63
2020-01-09 17:00:00 11.9 7 Sudoeste 12 Sudoeste 0 -- -- 51
2020-01-09 16:00:00 12 5 Sudoeste 15 Sudoeste 0 -- -- 55
2020-01-09 15:00:00 12 7 Sudoeste 15 Oeste 0 -- -- 55
2020-01-09 14:00:00 10.9 5 Sudoeste 9 Sudoeste 0 -- -- 60
2020-01-09 13:00:00 10 5 Sur 10 Sur 0 -- -- 69
2020-01-09 12:00:00 8.9 8 Sur 14 Sudeste 0 -- -- 76
2020-01-09 11:00:00 7 5 Sudeste 12 Sudeste 0 -- -- 89
2020-01-09 10:00:00 2.1 4 Norte 9 Este 0 -- -- 96
2020-01-09 09:00:00 0.6 4 Nordeste 8 Nordeste 0 -- -- 95
2020-01-09 08:00:00 0.2 6 Nordeste 11 Nordeste 0 -- -- 95
2020-01-09 07:00:00 0.3 4 Nordeste 8 Nordeste 0 -- -- 93
2020-01-09 06:00:00 0.9 2 Nordeste 9 Nordeste 0 -- -- 92
2020-01-09 05:00:00 1.7 5 Nordeste 13 Nordeste 0 -- -- 93
2020-01-09 04:00:00 1.1 2 Nordeste 8 Este 0 -- -- 93
2020-01-09 03:00:00 0.8 0 Calma 6 Nordeste 0 -- -- 89
2020-01-09 02:00:00 2.4 2 Nordeste 10 Nordeste 0 -- -- 82
2020-01-09 01:00:00 3.4 6 Nordeste 10 Nordeste 0 -- -- 86
2020-01-09 00:00:00 3.3 0 Calma 9 Nordeste 0 -- -- 86
2020-01-08 23:00:00 4.9 3 Norte 15 Nordeste 0 -- -- 85
2020-01-08 22:00:00 5.5 8 Nordeste 15 Nordeste 0 -- -- 84
2020-01-08 21:00:00 5.6 6 Nordeste 15 Nordeste 0 -- -- 90
2020-01-08 20:00:00 5.5 3 Este 15 Este 0 -- -- 92
2020-01-08 19:00:00 6.7 5 Este 13 Este 0 -- -- 88
2020-01-08 18:00:00 8.8 5 Este 19 Este 0 -- -- 79
2020-01-08 17:00:00 12 12 Este 27 Sudeste 0 -- -- 66
2020-01-08 16:00:00 13.4 11 Este 27 Este 0 -- -- 52
2020-01-08 15:00:00 14 14 Sudeste 30 Sudeste 0 -- -- 50
2020-01-08 14:00:00 14 16 Este 32 Sudeste 0 -- -- 52
2020-01-08 13:00:00 14.4 15 Sudeste 27 Sudeste 0 -- -- 44
2020-01-08 12:00:00 13.8 9 Sudeste 21 Sudeste 0 -- -- 46
2020-01-08 11:00:00 9 0 Calma 6 Este 0 -- -- 56
2020-01-08 10:00:00 2.8 0 Calma 4 Nordeste 0 -- -- 69
2020-01-08 09:00:00 0.5 3 Nordeste 9 Nordeste 0 -- -- 73
2020-01-08 08:00:00 -0.5 3 Nordeste 6 Nordeste 0 -- -- 73
2020-01-08 07:00:00 -0.5 0 Calma 5 Norte 0 -- -- 73
2020-01-08 06:00:00 -2.1 0 Calma 3 Norte 0 -- -- 81
2020-01-08 05:00:00 -2.2 0 Calma 3 Norte 0 -- -- 79
2020-01-08 04:00:00 -0.8 0 Calma 5 Norte 0 -- -- 74
2020-01-08 03:00:00 -1.7 2 Norte 4 Norte 0 -- -- 82
2020-01-08 02:00:00 -1.2 0 Calma 4 Nordeste 0 -- -- 80
2020-01-08 01:00:00 -0.4 0 Calma 5 Norte 0 -- -- 75
2020-01-08 00:00:00 0.4 2 Nordeste 6 Nordeste 0 -- -- 74
2020-01-07 23:00:00 1.5 0 Calma 6 Nordeste 0 -- -- 71
2020-01-07 22:00:00 2 3 Nordeste 7 Este 0 -- -- 72
2020-01-07 21:00:00 2.8 3 Nordeste 5 Este 0 -- -- 72
2020-01-07 20:00:00 4.6 0 Calma 4 Nordeste 0 -- -- 73
2020-01-07 19:00:00 7.4 0 Calma 9 Sudoeste 0 -- -- 64
2020-01-07 18:00:00 11.9 6 Sudoeste 9 Sudoeste 0 -- -- 48
2020-01-07 17:00:00 16 8 Oeste 15 Oeste 0 -- -- 40
2020-01-07 16:00:00 16.2 9 Oeste 18 Oeste 0 -- -- 33
2020-01-07 15:00:00 15.7 8 Oeste 13 Oeste 0 -- -- 33
2020-01-07 14:00:00 14.5 6 Oeste 12 Sudoeste 0 -- -- 39
2020-01-07 13:00:00 13.1 6 Sudoeste 11 Sudoeste 0 -- -- 44
2020-01-07 12:00:00 12.3 2 Sudeste 8 Sur 0 -- -- 43
2020-01-07 11:00:00 7.3 3 Nordeste 7 Este 0 -- -- 58
2020-01-07 10:00:00 0.9 3 Nordeste 7 Nordeste 0 -- -- 72
2020-01-07 09:00:00 -1.2 3 Nordeste 6 Nordeste 0 -- -- 74
2020-01-07 08:00:00 -1.5 2 Nordeste 7 Nordeste 0 -- -- 73
2020-01-07 07:00:00 -0.9 4 Nordeste 6 Nordeste 0 -- -- 72
2020-01-07 06:00:00 -1.1 2 Nordeste 5 Nordeste 0 -- -- 73
2020-01-07 05:00:00 -1 0 Calma 6 Nordeste 0 -- -- 73
2020-01-07 04:00:00 -0.5 0 Calma 10 Nordeste 0 -- -- 70
2020-01-07 03:00:00 0 4 Nordeste 7 Nordeste 0 -- -- 69
2020-01-07 02:00:00 -0.1 3 Nordeste 8 Nordeste 0 -- -- 70
2020-01-07 01:00:00 -0.4 4 Nordeste 8 Este 0 -- -- 74
2020-01-07 00:00:00 -1.3 0 Calma 5 Nordeste 0 -- -- 78
2020-01-06 23:00:00 -0.9 0 Calma 2 Este 0 -- -- 74
2020-01-06 22:00:00 0.2 0 Calma 2 Nordeste 0 -- -- 71
2020-01-06 21:00:00 2.1 0 Calma 2 Este 0 -- -- 65
2020-01-06 20:00:00 3.7 0 Calma 5 Nordeste 0 -- -- 58
2020-01-06 19:00:00 7.1 0 Calma 4 Oeste 0 -- -- 52
2020-01-06 18:00:00 12.5 3 Oeste 12 Sudoeste 0 -- -- 40
2020-01-06 17:00:00 15.8 8 Sudoeste 11 Sudoeste 0 -- -- 32
2020-01-06 16:00:00 16.5 3 Sudoeste 9 Oeste 0 -- -- 22
2020-01-06 15:00:00 16.4 3 Sudoeste 9 Sudoeste 0 -- -- 22
2020-01-06 14:00:00 15.6 3 Sur 10 Sur 0 -- -- 24
2020-01-06 13:00:00 14.4 4 Sur 9 Sur 0 -- -- 26
2020-01-06 12:00:00 12.1 3 Este 8 Nordeste 0 -- -- 36
2020-01-06 11:00:00 7.1 3 Nordeste 6 Este 0 -- -- 69
2020-01-06 10:00:00 1.6 3 Nordeste 8 Nordeste 0 -- -- 79